Aviation Digital Data Service (ADDS)

Output produced by METARs form (1458 UTC 26 September 2021)
found at http://www.aviationweather.gov/metar/data/
 
LFRN 261430Z AUTO 23008KT 200V260 9999 BKN046 OVC068 22/14 Q//// NOSIG
TAF LFRN 261100Z 2612/2712 25008KT 9999 BKN025 
     PROB30 
     TEMPO 2612/2615 4000 SHRA BKN012 BKN030TCU 
     TEMPO 2620/2705 BKN012 
     BECMG 2703/2705 20015G25KT 
     TEMPO 2705/2708 20020G40KT 2000 RA BKN008 BKN015CB 
     BECMG 2707/2709 29010KT 
     PROB30 
     TEMPO 2709/2712 4000 SHRA BKN025TCU